sensor_id;sensor_type;location;lat;lon;timestamp;P1;durP1;ratioP1;P2;durP2;ratioP2
26594;SDS011;14238;49.496;8.154;2022-11-12T00:00:36;20.63;;;6.07;;
26594;SDS011;14238;49.496;8.154;2022-11-12T00:03:02;25.10;;;7.50;;
26594;SDS011;14238;49.496;8.154;2022-11-12T00:05:28;9.47;;;6.10;;
26594;SDS011;14238;49.496;8.154;2022-11-12T00:07:54;24.20;;;8.47;;
26594;SDS011;14238;49.496;8.154;2022-11-12T00:10:20;19.97;;;7.67;;
26594;SDS011;14238;49.496;8.154;2022-11-12T00:12:45;24.73;;;6.93;;
26594;SDS011;14238;49.496;8.154;2022-11-12T00:15:11;27.77;;;6.60;;
26594;SDS011;14238;49.496;8.154;2022-11-12T00:17:37;28.93;;;7.40;;
26594;SDS011;14238;49.496;8.154;2022-11-12T00:20:03;17.13;;;6.20;;
26594;SDS011;14238;49.496;8.154;2022-11-12T00:22:30;18.93;;;7.33;;
26594;SDS011;14238;49.496;8.154;2022-11-12T00:24:55;36.27;;;7.40;;
26594;SDS011;14238;49.496;8.154;2022-11-12T00:27:21;7.43;;;5.90;;
26594;SDS011;14238;49.496;8.154;2022-11-12T00:29:46;35.77;;;7.80;;
26594;SDS011;14238;49.496;8.154;2022-11-12T00:32:12;26.27;;;6.93;;
26594;SDS011;14238;49.496;8.154;2022-11-12T00:34:37;22.07;;;7.50;;
26594;SDS011;14238;49.496;8.154;2022-11-12T00:37:03;9.87;;;6.40;;
26594;SDS011;14238;49.496;8.154;2022-11-12T00:39:29;32.30;;;6.80;;
26594;SDS011;14238;49.496;8.154;2022-11-12T00:41:54;29.17;;;8.10;;
26594;SDS011;14238;49.496;8.154;2022-11-12T00:44:20;28.27;;;6.70;;
26594;SDS011;14238;49.496;8.154;2022-11-12T00:46:45;37.07;;;7.47;;
26594;SDS011;14238;49.496;8.154;2022-11-12T00:49:11;31.60;;;8.00;;
26594;SDS011;14238;49.496;8.154;2022-11-12T00:51:37;33.73;;;8.00;;
26594;SDS011;14238;49.496;8.154;2022-11-12T00:54:03;34.27;;;8.73;;
26594;SDS011;14238;49.496;8.154;2022-11-12T00:56:30;55.00;;;9.47;;
26594;SDS011;14238;49.496;8.154;2022-11-12T00:58:56;25.40;;;7.33;;
26594;SDS011;14238;49.496;8.154;2022-11-12T01:01:22;75.77;;;10.20;;
26594;SDS011;14238;49.496;8.154;2022-11-12T01:03:48;27.03;;;7.67;;
26594;SDS011;14238;49.496;8.154;2022-11-12T01:06:15;42.87;;;8.53;;
26594;SDS011;14238;49.496;8.154;2022-11-12T01:08:42;96.77;;;11.87;;
26594;SDS011;14238;49.496;8.154;2022-11-12T01:13:36;52.30;;;9.07;;
26594;SDS011;14238;49.496;8.154;2022-11-12T01:16:06;21.03;;;7.50;;
26594;SDS011;14238;49.496;8.154;2022-11-12T01:18:36;7.23;;;5.77;;
26594;SDS011;14238;49.496;8.154;2022-11-12T01:21:03;9.00;;;6.10;;
26594;SDS011;14238;49.496;8.154;2022-11-12T01:23:36;6.07;;;5.57;;
26594;SDS011;14238;49.496;8.154;2022-11-12T01:26:10;5.70;;;5.20;;
26594;SDS011;14238;49.496;8.154;2022-11-12T01:28:38;7.27;;;6.57;;
26594;SDS011;14238;49.496;8.154;2022-11-12T01:31:19;6.20;;;5.60;;
26594;SDS011;14238;49.496;8.154;2022-11-12T01:33:47;6.30;;;5.70;;
26594;SDS011;14238;49.496;8.154;2022-11-12T01:36:17;6.30;;;5.70;;
26594;SDS011;14238;49.496;8.154;2022-11-12T01:38:43;5.50;;;5.00;;
26594;SDS011;14238;49.496;8.154;2022-11-12T01:41:12;5.70;;;5.20;;
26594;SDS011;14238;49.496;8.154;2022-11-12T01:43:40;6.63;;;5.97;;
26594;SDS011;14238;49.496;8.154;2022-11-12T01:46:09;8.17;;;6.93;;
26594;SDS011;14238;49.496;8.154;2022-11-12T01:48:48;13.23;;;8.40;;
26594;SDS011;14238;49.496;8.154;2022-11-12T01:51:16;10.40;;;8.60;;
26594;SDS011;14238;49.496;8.154;2022-11-12T01:53:45;14.40;;;10.27;;
26594;SDS011;14238;49.496;8.154;2022-11-12T01:56:14;16.83;;;10.27;;
26594;SDS011;14238;49.496;8.154;2022-11-12T01:58:41;19.23;;;11.13;;
26594;SDS011;14238;49.496;8.154;2022-11-12T02:01:09;24.97;;;11.47;;
26594;SDS011;14238;49.496;8.154;2022-11-12T02:03:34;25.53;;;10.60;;
26594;SDS011;14238;49.496;8.154;2022-11-12T02:06:10;29.93;;;12.33;;
26594;SDS011;14238;49.496;8.154;2022-11-12T02:08:38;39.53;;;12.93;;
26594;SDS011;14238;49.496;8.154;2022-11-12T02:11:09;27.00;;;11.70;;
26594;SDS011;14238;49.496;8.154;2022-11-12T02:13:43;29.30;;;11.30;;
26594;SDS011;14238;49.496;8.154;2022-11-12T02:16:32;21.73;;;11.07;;
26594;SDS011;14238;49.496;8.154;2022-11-12T02:19:00;39.40;;;13.20;;
26594;SDS011;14238;49.496;8.154;2022-11-12T02:21:27;38.23;;;13.63;;
26594;SDS011;14238;49.496;8.154;2022-11-12T02:24:00;26.90;;;11.57;;
26594;SDS011;14238;49.496;8.154;2022-11-12T02:26:34;15.77;;;11.13;;
26594;SDS011;14238;49.496;8.154;2022-11-12T02:29:02;12.10;;;10.80;;
26594;SDS011;14238;49.496;8.154;2022-11-12T02:31:28;57.17;;;14.00;;
26594;SDS011;14238;49.496;8.154;2022-11-12T02:33:54;29.27;;;12.23;;
26594;SDS011;14238;49.496;8.154;2022-11-12T02:36:20;21.43;;;11.77;;
26594;SDS011;14238;49.496;8.154;2022-11-12T02:38:46;21.53;;;12.13;;
26594;SDS011;14238;49.496;8.154;2022-11-12T02:41:12;20.47;;;11.87;;
26594;SDS011;14238;49.496;8.154;2022-11-12T02:43:37;24.63;;;11.07;;
26594;SDS011;14238;49.496;8.154;2022-11-12T02:46:04;33.57;;;12.40;;
26594;SDS011;14238;49.496;8.154;2022-11-12T02:48:30;11.27;;;10.00;;
26594;SDS011;14238;49.496;8.154;2022-11-12T02:50:56;28.03;;;11.37;;
26594;SDS011;14238;49.496;8.154;2022-11-12T02:53:21;23.90;;;11.70;;
26594;SDS011;14238;49.496;8.154;2022-11-12T02:55:47;15.40;;;11.07;;
26594;SDS011;14238;49.496;8.154;2022-11-12T02:58:12;20.10;;;10.40;;
26594;SDS011;14238;49.496;8.154;2022-11-12T03:00:38;15.67;;;10.67;;
26594;SDS011;14238;49.496;8.154;2022-11-12T03:03:03;23.97;;;11.73;;
26594;SDS011;14238;49.496;8.154;2022-11-12T03:05:29;19.73;;;10.83;;
26594;SDS011;14238;49.496;8.154;2022-11-12T03:07:57;16.60;;;10.37;;
26594;SDS011;14238;49.496;8.154;2022-11-12T03:10:24;29.10;;;13.57;;
26594;SDS011;14238;49.496;8.154;2022-11-12T03:12:51;16.30;;;11.10;;
26594;SDS011;14238;49.496;8.154;2022-11-12T03:15:18;29.90;;;13.40;;
26594;SDS011;14238;49.496;8.154;2022-11-12T03:17:43;23.10;;;12.90;;
26594;SDS011;14238;49.496;8.154;2022-11-12T03:20:09;15.13;;;12.17;;
26594;SDS011;14238;49.496;8.154;2022-11-12T03:22:36;24.50;;;13.77;;
26594;SDS011;14238;49.496;8.154;2022-11-12T03:25:02;24.27;;;13.57;;
26594;SDS011;14238;49.496;8.154;2022-11-12T03:27:28;15.17;;;12.27;;
26594;SDS011;14238;49.496;8.154;2022-11-12T03:29:54;28.90;;;13.23;;
26594;SDS011;14238;49.496;8.154;2022-11-12T03:32:19;21.57;;;14.40;;
26594;SDS011;14238;49.496;8.154;2022-11-12T03:34:45;32.77;;;14.80;;
26594;SDS011;14238;49.496;8.154;2022-11-12T03:37:10;46.67;;;14.43;;
26594;SDS011;14238;49.496;8.154;2022-11-12T03:39:36;34.70;;;14.33;;
26594;SDS011;14238;49.496;8.154;2022-11-12T03:42:02;27.00;;;13.17;;
26594;SDS011;14238;49.496;8.154;2022-11-12T03:44:28;38.13;;;14.27;;
26594;SDS011;14238;49.496;8.154;2022-11-12T03:46:53;16.53;;;12.10;;
26594;SDS011;14238;49.496;8.154;2022-11-12T03:49:19;16.07;;;13.00;;
26594;SDS011;14238;49.496;8.154;2022-11-12T03:51:44;25.53;;;13.33;;
26594;SDS011;14238;49.496;8.154;2022-11-12T03:54:11;76.23;;;16.10;;
26594;SDS011;14238;49.496;8.154;2022-11-12T03:56:36;45.03;;;13.90;;
26594;SDS011;14238;49.496;8.154;2022-11-12T03:59:02;15.87;;;12.40;;
26594;SDS011;14238;49.496;8.154;2022-11-12T04:01:28;20.90;;;11.77;;
26594;SDS011;14238;49.496;8.154;2022-11-12T04:03:54;13.50;;;11.73;;
26594;SDS011;14238;49.496;8.154;2022-11-12T04:06:19;15.70;;;12.00;;
26594;SDS011;14238;49.496;8.154;2022-11-12T04:09:03;25.43;;;14.37;;
26594;SDS011;14238;49.496;8.154;2022-11-12T04:11:29;25.77;;;12.27;;
26594;SDS011;14238;49.496;8.154;2022-11-12T04:13:54;57.80;;;15.20;;
26594;SDS011;14238;49.496;8.154;2022-11-12T04:16:21;15.10;;;10.63;;
26594;SDS011;14238;49.496;8.154;2022-11-12T04:19:05;21.47;;;12.27;;
26594;SDS011;14238;49.496;8.154;2022-11-12T04:22:03;17.67;;;11.37;;
26594;SDS011;14238;49.496;8.154;2022-11-12T04:24:40;19.77;;;12.40;;
26594;SDS011;14238;49.496;8.154;2022-11-12T04:27:29;20.30;;;11.40;;
26594;SDS011;14238;49.496;8.154;2022-11-12T04:29:57;29.33;;;13.10;;
26594;SDS011;14238;49.496;8.154;2022-11-12T04:32:52;19.33;;;11.70;;
26594;SDS011;14238;49.496;8.154;2022-11-12T04:35:19;24.77;;;12.57;;
26594;SDS011;14238;49.496;8.154;2022-11-12T04:37:46;51.00;;;14.53;;
26594;SDS011;14238;49.496;8.154;2022-11-12T04:43:04;19.30;;;12.70;;
26594;SDS011;14238;49.496;8.154;2022-11-12T04:45:51;20.03;;;11.70;;
26594;SDS011;14238;49.496;8.154;2022-11-12T04:48:18;27.23;;;14.00;;
26594;SDS011;14238;49.496;8.154;2022-11-12T04:50:46;20.90;;;11.33;;
26594;SDS011;14238;49.496;8.154;2022-11-12T04:53:14;20.60;;;12.50;;
26594;SDS011;14238;49.496;8.154;2022-11-12T04:55:40;26.87;;;13.13;;
26594;SDS011;14238;49.496;8.154;2022-11-12T04:58:06;12.27;;;10.47;;
26594;SDS011;14238;49.496;8.154;2022-11-12T05:00:31;168.93;;;22.93;;
26594;SDS011;14238;49.496;8.154;2022-11-12T05:02:58;24.40;;;13.10;;
26594;SDS011;14238;49.496;8.154;2022-11-12T05:05:24;19.20;;;12.93;;
26594;SDS011;14238;49.496;8.154;2022-11-12T05:07:49;67.67;;;15.97;;
26594;SDS011;14238;49.496;8.154;2022-11-12T05:10:15;136.30;;;21.33;;
26594;SDS011;14238;49.496;8.154;2022-11-12T05:12:41;109.43;;;18.10;;
26594;SDS011;14238;49.496;8.154;2022-11-12T05:15:07;45.40;;;13.50;;
26594;SDS011;14238;49.496;8.154;2022-11-12T05:17:34;33.47;;;12.57;;
26594;SDS011;14238;49.496;8.154;2022-11-12T05:19:59;28.97;;;13.60;;
26594;SDS011;14238;49.496;8.154;2022-11-12T05:22:25;37.10;;;13.93;;
26594;SDS011;14238;49.496;8.154;2022-11-12T05:24:50;77.47;;;19.20;;
26594;SDS011;14238;49.496;8.154;2022-11-12T05:27:19;45.03;;;14.83;;
26594;SDS011;14238;49.496;8.154;2022-11-12T05:29:45;69.27;;;18.10;;
26594;SDS011;14238;49.496;8.154;2022-11-12T05:32:12;65.50;;;17.37;;
26594;SDS011;14238;49.496;8.154;2022-11-12T05:34:39;24.47;;;13.27;;
26594;SDS011;14238;49.496;8.154;2022-11-12T05:37:05;47.80;;;15.50;;
26594;SDS011;14238;49.496;8.154;2022-11-12T05:39:32;36.93;;;14.90;;
26594;SDS011;14238;49.496;8.154;2022-11-12T05:41:57;55.13;;;14.83;;
26594;SDS011;14238;49.496;8.154;2022-11-12T05:44:23;112.47;;;19.23;;
26594;SDS011;14238;49.496;8.154;2022-11-12T05:46:49;36.57;;;14.07;;
26594;SDS011;14238;49.496;8.154;2022-11-12T05:49:15;19.63;;;13.70;;
26594;SDS011;14238;49.496;8.154;2022-11-12T05:51:41;34.43;;;14.23;;
26594;SDS011;14238;49.496;8.154;2022-11-12T05:54:07;37.97;;;13.63;;
26594;SDS011;14238;49.496;8.154;2022-11-12T05:56:33;62.70;;;16.33;;
26594;SDS011;14238;49.496;8.154;2022-11-12T05:58:59;40.57;;;14.77;;
26594;SDS011;14238;49.496;8.154;2022-11-12T06:01:25;30.90;;;13.30;;
26594;SDS011;14238;49.496;8.154;2022-11-12T06:03:51;112.10;;;19.60;;
26594;SDS011;14238;49.496;8.154;2022-11-12T06:06:16;49.83;;;13.97;;
26594;SDS011;14238;49.496;8.154;2022-11-12T06:08:42;26.83;;;13.30;;
26594;SDS011;14238;49.496;8.154;2022-11-12T06:11:07;35.57;;;14.00;;
26594;SDS011;14238;49.496;8.154;2022-11-12T06:13:33;20.23;;;13.50;;
26594;SDS011;14238;49.496;8.154;2022-11-12T06:15:59;90.40;;;18.87;;
26594;SDS011;14238;49.496;8.154;2022-11-12T06:18:24;119.37;;;22.97;;
26594;SDS011;14238;49.496;8.154;2022-11-12T06:20:50;91.67;;;20.00;;
26594;SDS011;14238;49.496;8.154;2022-11-12T06:23:34;31.07;;;18.10;;
26594;SDS011;14238;49.496;8.154;2022-11-12T06:26:00;97.97;;;20.10;;
26594;SDS011;14238;49.496;8.154;2022-11-12T06:28:26;71.63;;;18.13;;
26594;SDS011;14238;49.496;8.154;2022-11-12T06:30:52;113.23;;;20.10;;
26594;SDS011;14238;49.496;8.154;2022-11-12T06:33:18;68.83;;;16.77;;
26594;SDS011;14238;49.496;8.154;2022-11-12T06:35:44;42.10;;;14.03;;
26594;SDS011;14238;49.496;8.154;2022-11-12T06:38:09;115.70;;;20.33;;
26594;SDS011;14238;49.496;8.154;2022-11-12T06:40:35;37.47;;;14.83;;
26594;SDS011;14238;49.496;8.154;2022-11-12T06:43:01;50.10;;;15.60;;
26594;SDS011;14238;49.496;8.154;2022-11-12T06:45:26;370.17;;;39.30;;
26594;SDS011;14238;49.496;8.154;2022-11-12T06:47:56;25.87;;;16.50;;
26594;SDS011;14238;49.496;8.154;2022-11-12T06:50:21;196.97;;;25.70;;
26594;SDS011;14238;49.496;8.154;2022-11-12T06:52:47;371.07;;;36.37;;
26594;SDS011;14238;49.496;8.154;2022-11-12T06:55:12;286.80;;;30.97;;
26594;SDS011;14238;49.496;8.154;2022-11-12T06:57:38;355.67;;;34.73;;
26594;SDS011;14238;49.496;8.154;2022-11-12T07:00:04;26.83;;;13.33;;
26594;SDS011;14238;49.496;8.154;2022-11-12T07:02:30;237.90;;;30.60;;
26594;SDS011;14238;49.496;8.154;2022-11-12T07:04:55;480.33;;;44.30;;
26594;SDS011;14238;49.496;8.154;2022-11-12T07:07:21;325.87;;;33.37;;
26594;SDS011;14238;49.496;8.154;2022-11-12T07:09:46;79.00;;;19.00;;
26594;SDS011;14238;49.496;8.154;2022-11-12T07:12:12;142.77;;;21.53;;
26594;SDS011;14238;49.496;8.154;2022-11-12T07:14:37;135.00;;;21.60;;
26594;SDS011;14238;49.496;8.154;2022-11-12T07:17:03;241.70;;;29.90;;
26594;SDS011;14238;49.496;8.154;2022-11-12T07:19:28;60.83;;;17.00;;
26594;SDS011;14238;49.496;8.154;2022-11-12T07:21:54;148.60;;;23.43;;
26594;SDS011;14238;49.496;8.154;2022-11-12T07:24:19;41.97;;;16.90;;
26594;SDS011;14238;49.496;8.154;2022-11-12T07:26:45;63.93;;;18.37;;
26594;SDS011;14238;49.496;8.154;2022-11-12T07:29:10;75.40;;;20.37;;
26594;SDS011;14238;49.496;8.154;2022-11-12T07:31:36;145.67;;;23.40;;
26594;SDS011;14238;49.496;8.154;2022-11-12T07:34:01;41.27;;;16.37;;
26594;SDS011;14238;49.496;8.154;2022-11-12T07:36:27;45.67;;;17.37;;
26594;SDS011;14238;49.496;8.154;2022-11-12T07:38:53;90.70;;;20.27;;
26594;SDS011;14238;49.496;8.154;2022-11-12T07:41:19;40.10;;;18.77;;
26594;SDS011;14238;49.496;8.154;2022-11-12T07:43:47;49.70;;;18.03;;
26594;SDS011;14238;49.496;8.154;2022-11-12T07:46:18;34.60;;;16.53;;
26594;SDS011;14238;49.496;8.154;2022-11-12T07:48:45;29.93;;;16.67;;
26594;SDS011;14238;49.496;8.154;2022-11-12T07:51:12;66.47;;;18.43;;
26594;SDS011;14238;49.496;8.154;2022-11-12T07:53:39;79.90;;;21.20;;
26594;SDS011;14238;49.496;8.154;2022-11-12T07:56:06;26.77;;;17.67;;
26594;SDS011;14238;49.496;8.154;2022-11-12T07:58:36;104.30;;;20.93;;
26594;SDS011;14238;49.496;8.154;2022-11-12T08:01:09;41.03;;;18.87;;
26594;SDS011;14238;49.496;8.154;2022-11-12T08:03:55;30.53;;;18.27;;
26594;SDS011;14238;49.496;8.154;2022-11-12T08:06:21;37.27;;;18.57;;
26594;SDS011;14238;49.496;8.154;2022-11-12T08:08:52;64.87;;;20.20;;
26594;SDS011;14238;49.496;8.154;2022-11-12T08:11:18;31.63;;;18.37;;
26594;SDS011;14238;49.496;8.154;2022-11-12T08:13:44;30.97;;;17.17;;
26594;SDS011;14238;49.496;8.154;2022-11-12T08:16:10;34.30;;;19.50;;
26594;SDS011;14238;49.496;8.154;2022-11-12T08:18:36;26.57;;;18.67;;
26594;SDS011;14238;49.496;8.154;2022-11-12T08:21:02;44.50;;;16.03;;
26594;SDS011;14238;49.496;8.154;2022-11-12T08:23:29;58.80;;;15.50;;
26594;SDS011;14238;49.496;8.154;2022-11-12T08:25:58;34.00;;;13.13;;
26594;SDS011;14238;49.496;8.154;2022-11-12T08:28:25;31.03;;;12.17;;
26594;SDS011;14238;49.496;8.154;2022-11-12T08:30:52;32.53;;;13.50;;
26594;SDS011;14238;49.496;8.154;2022-11-12T08:33:18;41.33;;;11.60;;
26594;SDS011;14238;49.496;8.154;2022-11-12T08:35:43;66.17;;;12.30;;
26594;SDS011;14238;49.496;8.154;2022-11-12T08:38:09;39.00;;;10.30;;
26594;SDS011;14238;49.496;8.154;2022-11-12T08:40:35;59.60;;;12.50;;
26594;SDS011;14238;49.496;8.154;2022-11-12T08:43:08;62.50;;;13.47;;
26594;SDS011;14238;49.496;8.154;2022-11-12T08:45:35;34.60;;;11.07;;
26594;SDS011;14238;49.496;8.154;2022-11-12T08:48:03;30.70;;;11.10;;
26594;SDS011;14238;49.496;8.154;2022-11-12T08:50:31;41.17;;;12.40;;
26594;SDS011;14238;49.496;8.154;2022-11-12T08:53:01;59.63;;;14.93;;
26594;SDS011;14238;49.496;8.154;2022-11-12T08:55:29;15.90;;;12.70;;
26594;SDS011;14238;49.496;8.154;2022-11-12T08:57:55;41.03;;;14.87;;
26594;SDS011;14238;49.496;8.154;2022-11-12T09:00:25;34.47;;;13.63;;
26594;SDS011;14238;49.496;8.154;2022-11-12T09:02:54;31.93;;;14.70;;
26594;SDS011;14238;49.496;8.154;2022-11-12T09:05:19;36.80;;;13.80;;
26594;SDS011;14238;49.496;8.154;2022-11-12T09:07:45;33.93;;;14.40;;
26594;SDS011;14238;49.496;8.154;2022-11-12T09:10:11;57.87;;;16.37;;
26594;SDS011;14238;49.496;8.154;2022-11-12T09:12:37;52.20;;;16.30;;
26594;SDS011;14238;49.496;8.154;2022-11-12T09:15:03;70.60;;;18.03;;
26594;SDS011;14238;49.496;8.154;2022-11-12T09:17:29;56.40;;;15.27;;
26594;SDS011;14238;49.496;8.154;2022-11-12T09:19:56;70.73;;;16.40;;
26594;SDS011;14238;49.496;8.154;2022-11-12T09:22:22;46.90;;;14.73;;
26594;SDS011;14238;49.496;8.154;2022-11-12T09:24:47;21.20;;;13.53;;
26594;SDS011;14238;49.496;8.154;2022-11-12T09:27:13;42.30;;;14.90;;
26594;SDS011;14238;49.496;8.154;2022-11-12T09:29:38;28.47;;;14.87;;
26594;SDS011;14238;49.496;8.154;2022-11-12T09:32:04;50.77;;;15.40;;
26594;SDS011;14238;49.496;8.154;2022-11-12T09:34:29;23.67;;;13.60;;
26594;SDS011;14238;49.496;8.154;2022-11-12T09:36:55;42.40;;;14.80;;
26594;SDS011;14238;49.496;8.154;2022-11-12T09:39:21;40.93;;;15.13;;
26594;SDS011;14238;49.496;8.154;2022-11-12T09:41:46;42.00;;;15.90;;
26594;SDS011;14238;49.496;8.154;2022-11-12T09:44:16;25.87;;;13.20;;
26594;SDS011;14238;49.496;8.154;2022-11-12T09:46:48;29.60;;;13.93;;
26594;SDS011;14238;49.496;8.154;2022-11-12T09:49:34;22.63;;;13.23;;
26594;SDS011;14238;49.496;8.154;2022-11-12T09:54:35;20.00;;;13.13;;
26594;SDS011;14238;49.496;8.154;2022-11-12T09:57:01;29.97;;;14.53;;
26594;SDS011;14238;49.496;8.154;2022-11-12T09:59:31;30.97;;;12.97;;
26594;SDS011;14238;49.496;8.154;2022-11-12T10:04:57;46.87;;;15.87;;
26594;SDS011;14238;49.496;8.154;2022-11-12T10:07:45;34.67;;;14.50;;
26594;SDS011;14238;49.496;8.154;2022-11-12T10:10:15;44.43;;;13.57;;
26594;SDS011;14238;49.496;8.154;2022-11-12T10:15:51;22.57;;;14.00;;
26594;SDS011;14238;49.496;8.154;2022-11-12T10:21:23;42.90;;;14.67;;
26594;SDS011;14238;49.496;8.154;2022-11-12T10:23:59;35.33;;;14.00;;
26594;SDS011;14238;49.496;8.154;2022-11-12T10:26:25;33.67;;;15.20;;
26594;SDS011;14238;49.496;8.154;2022-11-12T10:29:01;33.00;;;13.97;;
26594;SDS011;14238;49.496;8.154;2022-11-12T10:31:36;25.33;;;13.53;;
26594;SDS011;14238;49.496;8.154;2022-11-12T10:34:16;26.63;;;14.40;;
26594;SDS011;14238;49.496;8.154;2022-11-12T10:36:50;25.77;;;15.73;;
26594;SDS011;14238;49.496;8.154;2022-11-12T10:42:08;27.00;;;14.80;;
26594;SDS011;14238;49.496;8.154;2022-11-12T10:44:35;17.00;;;13.73;;
26594;SDS011;14238;49.496;8.154;2022-11-12T10:47:35;20.33;;;15.60;;
26594;SDS011;14238;49.496;8.154;2022-11-12T10:50:17;22.43;;;15.20;;
26594;SDS011;14238;49.496;8.154;2022-11-12T10:52:55;28.77;;;14.80;;
26594;SDS011;14238;49.496;8.154;2022-11-12T10:55:30;22.90;;;14.77;;
26594;SDS011;14238;49.496;8.154;2022-11-12T11:00:31;33.20;;;15.87;;
26594;SDS011;14238;49.496;8.154;2022-11-12T11:02:57;27.50;;;14.07;;
26594;SDS011;14238;49.496;8.154;2022-11-12T11:05:37;37.33;;;15.57;;
26594;SDS011;14238;49.496;8.154;2022-11-12T11:08:14;16.80;;;13.10;;
26594;SDS011;14238;49.496;8.154;2022-11-12T11:11:09;20.33;;;14.97;;
26594;SDS011;14238;49.496;8.154;2022-11-12T11:13:47;21.20;;;14.90;;
26594;SDS011;14238;49.496;8.154;2022-11-12T11:16:15;26.03;;;14.40;;
26594;SDS011;14238;49.496;8.154;2022-11-12T11:18:50;38.60;;;15.23;;
26594;SDS011;14238;49.496;8.154;2022-11-12T11:24:03;25.80;;;15.63;;
26594;SDS011;14238;49.496;8.154;2022-11-12T11:29:34;22.33;;;15.27;;
26594;SDS011;14238;49.496;8.154;2022-11-12T11:32:21;16.60;;;14.90;;
26594;SDS011;14238;49.496;8.154;2022-11-12T11:37:30;17.70;;;14.77;;
26594;SDS011;14238;49.496;8.154;2022-11-12T11:47:55;21.53;;;16.40;;
26594;SDS011;14238;49.496;8.154;2022-11-12T11:50:29;19.60;;;17.00;;
26594;SDS011;14238;49.496;8.154;2022-11-12T11:55:54;24.83;;;19.97;;
26594;SDS011;14238;49.496;8.154;2022-11-12T11:58:35;23.40;;;18.70;;
26594;SDS011;14238;49.496;8.154;2022-11-12T12:01:25;24.10;;;18.00;;
26594;SDS011;14238;49.496;8.154;2022-11-12T12:07:11;20.77;;;17.33;;
26594;SDS011;14238;49.496;8.154;2022-11-12T12:13:04;21.63;;;18.03;;
26594;SDS011;14238;49.496;8.154;2022-11-12T12:15:40;20.50;;;17.20;;
26594;SDS011;14238;49.496;8.154;2022-11-12T12:23:43;26.43;;;19.17;;
26594;SDS011;14238;49.496;8.154;2022-11-12T12:26:21;19.73;;;15.50;;
26594;SDS011;14238;49.496;8.154;2022-11-12T12:28:55;19.37;;;17.10;;
26594;SDS011;14238;49.496;8.154;2022-11-12T12:34:27;20.37;;;18.20;;
26594;SDS011;14238;49.496;8.154;2022-11-12T12:37:04;19.80;;;17.77;;
26594;SDS011;14238;49.496;8.154;2022-11-12T12:42:24;23.27;;;19.20;;
26594;SDS011;14238;49.496;8.154;2022-11-12T12:44:58;18.33;;;16.30;;
26594;SDS011;14238;49.496;8.154;2022-11-12T12:47:37;20.07;;;17.10;;
26594;SDS011;14238;49.496;8.154;2022-11-12T12:50:10;21.17;;;18.97;;
26594;SDS011;14238;49.496;8.154;2022-11-12T12:55:47;22.03;;;17.77;;
26594;SDS011;14238;49.496;8.154;2022-11-12T12:58:18;21.63;;;19.30;;
26594;SDS011;14238;49.496;8.154;2022-11-12T13:06:54;17.97;;;15.93;;
26594;SDS011;14238;49.496;8.154;2022-11-12T13:30:07;21.00;;;18.90;;
26594;SDS011;14238;49.496;8.154;2022-11-12T13:32:39;21.33;;;19.03;;
26594;SDS011;14238;49.496;8.154;2022-11-12T13:43:15;22.03;;;19.70;;
26594;SDS011;14238;49.496;8.154;2022-11-12T13:48:21;21.50;;;19.17;;
26594;SDS011;14238;49.496;8.154;2022-11-12T13:50:54;20.70;;;18.30;;
26594;SDS011;14238;49.496;8.154;2022-11-12T13:53:23;20.33;;;18.13;;
26594;SDS011;14238;49.496;8.154;2022-11-12T13:55:51;21.10;;;18.87;;
26594;SDS011;14238;49.496;8.154;2022-11-12T13:58:26;20.67;;;18.57;;
26594;SDS011;14238;49.496;8.154;2022-11-12T14:00:52;21.10;;;18.47;;
26594;SDS011;14238;49.496;8.154;2022-11-12T14:03:20;20.60;;;18.47;;
26594;SDS011;14238;49.496;8.154;2022-11-12T14:05:47;18.60;;;16.80;;
26594;SDS011;14238;49.496;8.154;2022-11-12T14:10:55;20.90;;;18.80;;
26594;SDS011;14238;49.496;8.154;2022-11-12T14:19:25;23.63;;;21.20;;
26594;SDS011;14238;49.496;8.154;2022-11-12T14:22:15;24.40;;;21.90;;
26594;SDS011;14238;49.496;8.154;2022-11-12T14:24:43;27.57;;;24.63;;
26594;SDS011;14238;49.496;8.154;2022-11-12T14:30:10;31.00;;;26.90;;
26594;SDS011;14238;49.496;8.154;2022-11-12T14:32:40;27.80;;;24.83;;
26594;SDS011;14238;49.496;8.154;2022-11-12T14:37:52;28.97;;;25.90;;
26594;SDS011;14238;49.496;8.154;2022-11-12T14:40:53;31.57;;;27.00;;
26594;SDS011;14238;49.496;8.154;2022-11-12T14:43:24;30.37;;;27.30;;
26594;SDS011;14238;49.496;8.154;2022-11-12T14:45:53;32.47;;;28.97;;
26594;SDS011;14238;49.496;8.154;2022-11-12T14:48:20;32.50;;;28.97;;
26594;SDS011;14238;49.496;8.154;2022-11-12T14:50:47;32.33;;;28.67;;
26594;SDS011;14238;49.496;8.154;2022-11-12T14:53:21;29.80;;;26.57;;
26594;SDS011;14238;49.496;8.154;2022-11-12T14:55:53;33.60;;;29.77;;
26594;SDS011;14238;49.496;8.154;2022-11-12T14:58:21;34.67;;;29.33;;
26594;SDS011;14238;49.496;8.154;2022-11-12T15:00:49;35.43;;;31.63;;
26594;SDS011;14238;49.496;8.154;2022-11-12T15:03:17;35.23;;;30.23;;
26594;SDS011;14238;49.496;8.154;2022-11-12T15:05:51;31.97;;;28.47;;
26594;SDS011;14238;49.496;8.154;2022-11-12T15:08:29;35.93;;;30.80;;
26594;SDS011;14238;49.496;8.154;2022-11-12T15:10:57;34.57;;;29.83;;
26594;SDS011;14238;49.496;8.154;2022-11-12T15:13:44;36.80;;;31.60;;
26594;SDS011;14238;49.496;8.154;2022-11-12T15:16:10;40.13;;;33.57;;
26594;SDS011;14238;49.496;8.154;2022-11-12T15:18:43;38.20;;;32.67;;
26594;SDS011;14238;49.496;8.154;2022-11-12T15:21:19;37.30;;;32.97;;
26594;SDS011;14238;49.496;8.154;2022-11-12T15:23:50;34.50;;;29.90;;
26594;SDS011;14238;49.496;8.154;2022-11-12T15:26:31;35.30;;;31.40;;
26594;SDS011;14238;49.496;8.154;2022-11-12T15:29:00;39.27;;;31.47;;
26594;SDS011;14238;49.496;8.154;2022-11-12T15:31:45;38.70;;;33.40;;
26594;SDS011;14238;49.496;8.154;2022-11-12T15:36:57;33.90;;;30.20;;
26594;SDS011;14238;49.496;8.154;2022-11-12T15:39:27;46.70;;;31.47;;
26594;SDS011;14238;49.496;8.154;2022-11-12T15:41:55;53.47;;;29.63;;
26594;SDS011;14238;49.496;8.154;2022-11-12T15:44:37;37.53;;;28.97;;
26594;SDS011;14238;49.496;8.154;2022-11-12T15:47:02;35.40;;;29.93;;
26594;SDS011;14238;49.496;8.154;2022-11-12T15:49:28;65.20;;;31.40;;
26594;SDS011;14238;49.496;8.154;2022-11-12T15:51:54;51.90;;;31.10;;
26594;SDS011;14238;49.496;8.154;2022-11-12T15:54:19;45.07;;;32.47;;
26594;SDS011;14238;49.496;8.154;2022-11-12T15:56:45;42.07;;;29.27;;
26594;SDS011;14238;49.496;8.154;2022-11-12T15:59:13;50.03;;;31.63;;
26594;SDS011;14238;49.496;8.154;2022-11-12T16:01:41;66.70;;;31.73;;
26594;SDS011;14238;49.496;8.154;2022-11-12T16:04:08;45.20;;;29.77;;
26594;SDS011;14238;49.496;8.154;2022-11-12T16:06:35;81.43;;;31.80;;
26594;SDS011;14238;49.496;8.154;2022-11-12T16:09:01;70.37;;;29.90;;
26594;SDS011;14238;49.496;8.154;2022-11-12T16:11:26;49.07;;;29.37;;
26594;SDS011;14238;49.496;8.154;2022-11-12T16:14:02;66.33;;;29.70;;
26594;SDS011;14238;49.496;8.154;2022-11-12T16:16:30;82.50;;;30.13;;
26594;SDS011;14238;49.496;8.154;2022-11-12T16:18:57;168.40;;;38.83;;
26594;SDS011;14238;49.496;8.154;2022-11-12T16:21:22;53.83;;;29.87;;
26594;SDS011;14238;49.496;8.154;2022-11-12T16:23:48;81.03;;;31.40;;
26594;SDS011;14238;49.496;8.154;2022-11-12T16:26:14;47.87;;;28.77;;
26594;SDS011;14238;49.496;8.154;2022-11-12T16:28:45;102.10;;;31.17;;
26594;SDS011;14238;49.496;8.154;2022-11-12T16:31:10;135.33;;;34.87;;